Spirit of St Louis Airport
KSUS : now visible

Airfield :











YOU CAN JOIN US ON...

 
LOGIN :

Register | Disclaimer

   EN    FR    IT 

 









Legend :    VFR   Marginal VFR   IFR   Intensive IFR   Very Intensive IFR
Visi :
Ceiling :
>= 8 km
>= 3000ft
5 to 8 km
1000 to 3000 ft
1500m to 5 km
500 to 1000 ft
800 to 1500m
200 to 500 ft
< 800m
< 200 ft
Symbols :   Thunderstorms  Fog  Heavy snow  Heavy precipitations  Wind > 20 kt







- Airport Elevation : 463 ft


KSUS - Spirit of St Louis

CURRENT METAR :
  • 201154Z 25005KT 10SM CLR 12/11 A3007 RMK AO2 SLP179 70008 T01220106 10133 20106 53020

EXPIRED METARs :
  • 201054Z 22003KT 10SM SCT250 11/09 A3004 RMK AO2 SLP168 T01060094
  • 200954Z AUTO 28003KT 10SM CLR 12/09 A3003 RMK AO2 SLP164 T01220094

TAF KSUS
Valid from the 20 at 12:00 until the 21 at 12:00 UTC


201130Z 2012/2112 31004KT P6SM SCT250
FM202200 05006KT P6SM BKN250
FM210800 09010G17KT P6SM VCSH OVC050
KZKC FIR / North America



MET'MAP, your aeronautical weather chart ! - Copyright ORBIFLY December 2007 - Disclaimer

ORBIFLY MET'MAP TEAM :

Programming & Development : Alexandra Zaïnal
Concept & Development : Baudouin d'Aumeries
Co-Development & Prog : Marc-Olivier Méhu
Technical & hardware support : Manuel Goepfert

Contact : metmap@orbifly.com




SOURCES & CREDITS :

   NOAA       Earth
Advisory